GQPA

Atar International Airport

Atar, Mauritania
METAR GQPA 160900Z 36008KT CAVOK 15/M02 Q1022
Observed Flight Rules
Dec-16 @ 09:00 UTC (2 hours ago) Visual Flight Rules
Wind Visibility Clouds
360° at 8 knots 10,000+ meters
  • Clear skies
Temperatures Readings
Current 15°C / 59°F
Dewpoint -2°C / 28°F
Humidity 31%
Altimeter 30.18" Hg
Pressure 1022 hPa
Elevation 224
METAR GQPA 160900Z 36008KT CAVOK 15/M02 Q1022
Observed Flight Rules
Dec-16 @ 09:00 UTC
(2 hours ago)
VFR
Wind Visibility
360° at 8 knots 10,000+ meters
Clouds
  • Clear skies
Temperature Dewpoint
15°C / 59°F -2°C / 28°F
Humidity Altimeter Pressure
31% 30.18" Hg 1022 hPa